Time;durP1;ratioP1;P1;durP2;ratioP2;P2;SDS_P1;SDS_P2;PMS_P1;PMS_P2;Temp;Humidity;BMP_temperature;BMP_pressure;BME280_temperature;BME280_humidity;BME280_pressure;Samples;Min_cycle;Max_cycle;Signal;HPM_P1;HPM_P2
2022/09/10 00:01:08;;;;;;;0.10;0.10;;;;;;;;;;5030943;28;20042;-69
2022/09/10 00:03:36;;;;;;;0.10;0.10;;;;;;;;;;5027380;28;20060;-69
2022/09/10 00:06:08;;;;;;;0.08;0.08;;;;;;;;;;5029116;28;20042;-69
2022/09/10 00:08:38;;;;;;;0.03;0.03;;;;;;;;;;5030855;28;20054;-69
2022/09/10 00:11:08;;;;;;;0.52;0.13;;;;;;;;;;5031304;28;20367;-69
2022/09/10 00:13:38;;;;;;;0.25;0.10;;;;;;;;;;5031976;28;20049;-69
2022/09/10 00:16:10;;;;;;;0.30;0.20;;;;;;;;;;5029721;28;20409;-69
2022/09/10 00:18:39;;;;;;;3.70;0.20;;;;;;;;;;5028350;28;20132;-69
2022/09/10 00:21:09;;;;;;;0.10;0.10;;;;;;;;;;5030450;28;20078;-69
2022/09/10 00:23:39;;;;;;;0.10;0.10;;;;;;;;;;5029658;28;20049;-69
2022/09/10 00:26:13;;;;;;;0.10;0.10;;;;;;;;;;5043352;28;20063;-68
2022/09/10 00:28:42;;;;;;;0.10;0.10;;;;;;;;;;5050936;28;20139;-69
2022/09/10 00:31:12;;;;;;;0.10;0.10;;;;;;;;;;5049964;28;20552;-69
2022/09/10 00:33:40;;;;;;;0.03;0.03;;;;;;;;;;5048340;28;20118;-69
2022/09/10 00:36:14;;;;;;;0.25;0.10;;;;;;;;;;5046532;28;20052;-68
2022/09/10 00:38:44;;;;;;;5.70;0.20;;;;;;;;;;5050262;28;20037;-69
2022/09/10 00:41:13;;;;;;;0.10;0.10;;;;;;;;;;5049682;28;20405;-69
2022/09/10 00:43:48;;;;;;;1.05;0.15;;;;;;;;;;5049558;28;20503;-69
2022/09/10 00:46:21;;;;;;;0.00;0.00;;;;;;;;;;5048602;28;20060;-69
2022/09/10 00:48:49;;;;;;;0.10;0.10;;;;;;;;;;5050173;28;20049;-69
2022/09/10 00:51:18;;;;;;;0.40;0.40;;;;;;;;;;5049646;28;20052;-68
2022/09/10 00:53:48;;;;;;;0.10;0.10;;;;;;;;;;5051248;28;20068;-69
2022/09/10 00:56:16;;;;;;;0.38;0.20;;;;;;;;;;5047265;28;20090;-69
2022/09/10 00:58:46;;;;;;;0.60;0.17;;;;;;;;;;5041282;28;20057;-69
2022/09/10 01:01:15;;;;;;;1999.90;999.90;;;;;;;;;;5048332;28;20390;-69
2022/09/10 01:03:44;;;;;;;0.15;0.15;;;;;;;;;;5051128;28;20428;-69
2022/09/10 01:06:13;;;;;;;1999.90;999.90;;;;;;;;;;5028766;28;20052;-69
2022/09/10 01:08:41;;;;;;;0.10;0.10;;;;;;;;;;5028782;28;20057;-69
2022/09/10 01:11:16;;;;;;;0.00;0.00;;;;;;;;;;5027849;28;20131;-69
2022/09/10 01:13:53;;;;;;;0.10;0.10;;;;;;;;;;5020526;28;20046;-69
2022/09/10 01:16:26;;;;;;;0.20;0.20;;;;;;;;;;5028369;28;20048;-69
2022/09/10 01:18:59;;;;;;;0.10;0.10;;;;;;;;;;5029166;28;20068;-69
2022/09/10 01:21:30;;;;;;;1999.90;999.90;;;;;;;;;;5029926;28;20045;-69
2022/09/10 01:24:17;;;;;;;1999.90;999.90;;;;;;;;;;5022069;28;20049;-69
2022/09/10 01:27:15;;;;;;;1999.90;999.90;;;;;;;;;;5028856;28;20107;-69
2022/09/10 01:29:48;;;;;;;1999.90;999.90;;;;;;;;;;4963227;28;20050;-69
2022/09/10 01:32:22;;;;;;;1999.90;999.90;;;;;;;;;;5015884;28;20159;-69
2022/09/10 01:34:54;;;;;;;1999.90;999.90;;;;;;;;;;5028403;28;20045;-69
2022/09/10 01:37:26;;;;;;;1999.90;999.90;;;;;;;;;;5030015;28;20052;-69
2022/09/10 01:39:56;;;;;;;1999.90;999.90;;;;;;;;;;5024506;28;20482;-69
2022/09/10 01:42:25;;;;;;;1999.90;999.90;;;;;;;;;;5030037;28;20558;-69
2022/09/10 01:44:56;;;;;;;1999.90;999.90;;;;;;;;;;5022835;28;20049;-69
2022/09/10 01:47:34;;;;;;;1999.90;999.90;;;;;;;;;;5029015;28;20386;-69
2022/09/10 01:50:13;;;;;;;1999.90;999.90;;;;;;;;;;5027325;28;20054;-69
2022/09/10 01:52:46;;;;;;;1999.90;999.90;;;;;;;;;;5029419;28;20481;-69
2022/09/10 01:55:20;;;;;;;1999.90;999.90;;;;;;;;;;5028572;28;20410;-69
2022/09/10 01:57:54;;;;;;;1999.90;999.90;;;;;;;;;;5027718;28;20045;-68
2022/09/10 02:00:25;;;;;;;1999.90;999.90;;;;;;;;;;5033310;28;20044;-68
2022/09/10 02:02:57;;;;;;;1999.90;999.90;;;;;;;;;;5026409;28;20037;-68
2022/09/10 02:05:27;;;;;;;1999.90;999.90;;;;;;;;;;5025796;28;20053;-68
2022/09/10 02:07:58;;;;;;;1999.90;999.90;;;;;;;;;;5028975;28;20050;-68
2022/09/10 02:10:26;;;;;;;1999.90;999.90;;;;;;;;;;5029467;28;20056;-69
2022/09/10 02:12:55;;;;;;;1999.90;999.90;;;;;;;;;;5028999;28;20053;-68
2022/09/10 02:15:27;;;;;;;1999.90;999.90;;;;;;;;;;5027942;28;20701;-68
2022/09/10 02:17:56;;;;;;;1999.90;999.90;;;;;;;;;;5027835;28;20037;-68
2022/09/10 02:20:24;;;;;;;1999.90;999.90;;;;;;;;;;5027377;28;20057;-68
2022/09/10 02:22:54;;;;;;;1999.90;999.90;;;;;;;;;;5028357;28;20045;-68
2022/09/10 02:25:22;;;;;;;1999.90;999.90;;;;;;;;;;5025731;28;20052;-69
2022/09/10 02:27:50;;;;;;;1999.90;999.90;;;;;;;;;;5030274;28;20050;-69
2022/09/10 02:30:19;;;;;;;1999.90;999.90;;;;;;;;;;5026067;28;20061;-69
2022/09/10 02:32:48;;;;;;;1999.90;999.90;;;;;;;;;;5025006;28;20052;-68
2022/09/10 02:35:17;;;;;;;1999.90;999.90;;;;;;;;;;5031991;28;20048;-69
2022/09/10 02:37:45;;;;;;;1999.90;999.90;;;;;;;;;;5044287;28;20049;-68
2022/09/10 02:40:13;;;;;;;1999.90;999.90;;;;;;;;;;5047487;28;20496;-69
2022/09/10 02:42:45;;;;;;;1999.90;999.90;;;;;;;;;;5048412;28;20049;-69
2022/09/10 02:45:14;;;;;;;1999.90;999.90;;;;;;;;;;5050691;28;20056;-68
2022/09/10 02:47:43;;;;;;;1999.90;999.90;;;;;;;;;;5027999;28;20045;-68
2022/09/10 02:50:12;;;;;;;1999.90;999.90;;;;;;;;;;5024343;28;20052;-69
2022/09/10 02:52:40;;;;;;;1999.90;999.90;;;;;;;;;;5028497;28;20056;-68
2022/09/10 02:55:10;;;;;;;1999.90;999.90;;;;;;;;;;5038878;28;20048;-68
2022/09/10 02:57:39;;;;;;;1999.90;999.90;;;;;;;;;;5030101;28;20056;-69
2022/09/10 03:00:08;;;;;;;1999.90;999.90;;;;;;;;;;5029668;28;20042;-68
2022/09/10 03:02:36;;;;;;;1999.90;999.90;;;;;;;;;;5033125;28;20058;-68
2022/09/10 03:05:05;;;;;;;1999.90;999.90;;;;;;;;;;5029197;28;20042;-68
2022/09/10 03:07:34;;;;;;;1999.90;999.90;;;;;;;;;;5031991;28;20120;-69
2022/09/10 03:10:03;;;;;;;1999.90;999.90;;;;;;;;;;5032323;28;20057;-68
2022/09/10 03:12:31;;;;;;;1999.90;999.90;;;;;;;;;;5030416;28;20184;-68
2022/09/10 03:14:59;;;;;;;1999.90;999.90;;;;;;;;;;5029048;28;20056;-69
2022/09/10 03:17:27;;;;;;;1999.90;999.90;;;;;;;;;;5032143;28;20060;-69
2022/09/10 03:19:57;;;;;;;1999.90;999.90;;;;;;;;;;5031662;28;21822;-69
2022/09/10 03:22:25;;;;;;;1999.90;999.90;;;;;;;;;;5031095;28;21143;-69
2022/09/10 03:24:55;;;;;;;1999.90;999.90;;;;;;;;;;5036568;28;20437;-68
2022/09/10 03:27:24;;;;;;;1999.90;999.90;;;;;;;;;;5030149;28;20053;-68
2022/09/10 03:29:52;;;;;;;1999.90;999.90;;;;;;;;;;5030846;28;20056;-68
2022/09/10 03:32:20;;;;;;;1999.90;999.90;;;;;;;;;;5029897;28;20057;-68
2022/09/10 03:34:49;;;;;;;1999.90;999.90;;;;;;;;;;5028463;28;20051;-69
2022/09/10 03:37:17;;;;;;;1999.90;999.90;;;;;;;;;;5030927;28;20495;-68
2022/09/10 03:39:45;;;;;;;1999.90;999.90;;;;;;;;;;5030342;28;20046;-69
2022/09/10 03:42:15;;;;;;;1999.90;999.90;;;;;;;;;;5029692;28;20128;-69
2022/09/10 03:44:43;;;;;;;1999.90;999.90;;;;;;;;;;5031215;28;20060;-69
2022/09/10 03:47:11;;;;;;;1999.90;999.90;;;;;;;;;;5023679;28;20064;-69
2022/09/10 03:49:40;;;;;;;1999.90;999.90;;;;;;;;;;5029726;28;20072;-69
2022/09/10 03:52:11;;;;;;;1999.90;999.90;;;;;;;;;;5029534;28;20060;-69
2022/09/10 03:54:39;;;;;;;1999.90;999.90;;;;;;;;;;5025589;28;20053;-69
2022/09/10 03:57:08;;;;;;;1999.90;999.90;;;;;;;;;;5048561;28;20051;-68
2022/09/10 03:59:40;;;;;;;1999.90;999.90;;;;;;;;;;5049724;28;20041;-69
2022/09/10 04:02:09;;;;;;;1999.90;999.90;;;;;;;;;;5049350;28;20382;-68
2022/09/10 04:04:37;;;;;;;1999.90;999.90;;;;;;;;;;5046363;28;20094;-69
2022/09/10 04:07:05;;;;;;;1999.90;999.90;;;;;;;;;;5030664;28;20490;-68
2022/09/10 04:09:34;;;;;;;1999.90;999.90;;;;;;;;;;5028665;28;20053;-69
2022/09/10 04:12:03;;;;;;;1999.90;999.90;;;;;;;;;;5022329;28;20046;-68
2022/09/10 04:14:31;;;;;;;1999.90;999.90;;;;;;;;;;5026743;28;20117;-68
2022/09/10 04:17:01;;;;;;;1999.90;999.90;;;;;;;;;;5028382;28;20045;-68
2022/09/10 04:19:29;;;;;;;1999.90;999.90;;;;;;;;;;5029687;28;20057;-69
2022/09/10 04:21:58;;;;;;;1999.90;999.90;;;;;;;;;;5028318;28;20123;-69
2022/09/10 04:24:26;;;;;;;1999.90;999.90;;;;;;;;;;5029194;28;20049;-68
2022/09/10 04:26:54;;;;;;;1999.90;999.90;;;;;;;;;;5028060;28;20053;-68
2022/09/10 04:29:23;;;;;;;1999.90;999.90;;;;;;;;;;5030230;28;20516;-69
2022/09/10 04:31:51;;;;;;;1999.90;999.90;;;;;;;;;;5026690;28;20057;-69
2022/09/10 04:34:21;;;;;;;1999.90;999.90;;;;;;;;;;5027280;28;20049;-69
2022/09/10 04:36:51;;;;;;;1999.90;999.90;;;;;;;;;;5028784;28;20045;-69
2022/09/10 04:39:19;;;;;;;1999.90;999.90;;;;;;;;;;5028929;28;20049;-69
2022/09/10 04:41:47;;;;;;;1999.90;999.90;;;;;;;;;;5029628;28;20050;-69
2022/09/10 04:44:19;;;;;;;1999.90;999.90;;;;;;;;;;5029198;28;20252;-69
2022/09/10 04:46:47;;;;;;;1999.90;999.90;;;;;;;;;;5028236;28;20528;-70
2022/09/10 04:49:15;;;;;;;1999.90;999.90;;;;;;;;;;5029896;28;20057;-69
2022/09/10 04:51:45;;;;;;;1999.90;999.90;;;;;;;;;;5035248;28;20065;-69
2022/09/10 04:54:14;;;;;;;1999.90;999.90;;;;;;;;;;5027500;28;20053;-69
2022/09/10 04:56:44;;;;;;;1999.90;999.90;;;;;;;;;;5047101;28;20060;-69
2022/09/10 04:59:12;;;;;;;1999.90;999.90;;;;;;;;;;5049577;28;20049;-70
2022/09/10 05:01:41;;;;;;;1999.90;999.90;;;;;;;;;;5046024;28;20045;-71
2022/09/10 05:04:09;;;;;;;1999.90;999.90;;;;;;;;;;5046418;28;21369;-70
2022/09/10 05:06:37;;;;;;;1999.90;999.90;;;;;;;;;;5049413;28;20131;-69
2022/09/10 05:09:07;;;;;;;1999.90;999.90;;;;;;;;;;5048268;28;20053;-69
2022/09/10 05:11:36;;;;;;;1999.90;999.90;;;;;;;;;;5046850;28;20053;-70
2022/09/10 05:14:04;;;;;;;1999.90;999.90;;;;;;;;;;5048829;28;20056;-69
2022/09/10 05:16:32;;;;;;;1999.90;999.90;;;;;;;;;;5024064;28;20050;-70
2022/09/10 05:19:01;;;;;;;1999.90;999.90;;;;;;;;;;5024181;28;20486;-70
2022/09/10 05:21:30;;;;;;;1999.90;999.90;;;;;;;;;;5022565;28;20061;-70
2022/09/10 05:23:58;;;;;;;1999.90;999.90;;;;;;;;;;5025484;28;20072;-69
2022/09/10 05:26:28;;;;;;;1999.90;999.90;;;;;;;;;;5025923;28;20056;-69
2022/09/10 05:28:58;;;;;;;1999.90;999.90;;;;;;;;;;5025892;28;20049;-69
2022/09/10 05:31:27;;;;;;;1999.90;999.90;;;;;;;;;;5024812;28;20064;-69
2022/09/10 05:33:55;;;;;;;1999.90;999.90;;;;;;;;;;5023420;28;20053;-69
2022/09/10 05:36:24;;;;;;;1999.90;999.90;;;;;;;;;;5023672;28;20045;-69
2022/09/10 05:38:53;;;;;;;1999.90;999.90;;;;;;;;;;5025105;28;20065;-68
2022/09/10 05:41:22;;;;;;;1999.90;999.90;;;;;;;;;;5024497;28;20056;-68
2022/09/10 05:43:52;;;;;;;1999.90;999.90;;;;;;;;;;5025654;28;20053;-68
2022/09/10 05:46:21;;;;;;;1999.90;999.90;;;;;;;;;;5024816;28;20064;-68
2022/09/10 05:48:49;;;;;;;1999.90;999.90;;;;;;;;;;5024777;28;20041;-68
2022/09/10 05:51:17;;;;;;;1999.90;999.90;;;;;;;;;;5022916;28;20060;-68
2022/09/10 05:53:45;;;;;;;1999.90;999.90;;;;;;;;;;5024304;28;20057;-68
2022/09/10 05:56:14;;;;;;;1999.90;999.90;;;;;;;;;;5022779;28;20509;-69
2022/09/10 05:58:43;;;;;;;1999.90;999.90;;;;;;;;;;5026640;28;20068;-68
2022/09/10 06:01:14;;;;;;;1999.90;999.90;;;;;;;;;;5023647;28;20168;-69
2022/09/10 06:03:43;;;;;;;1999.90;999.90;;;;;;;;;;5025725;28;20061;-70
2022/09/10 06:06:11;;;;;;;1999.90;999.90;;;;;;;;;;5021659;28;20060;-69
2022/09/10 06:08:39;;;;;;;1999.90;999.90;;;;;;;;;;5022328;28;20056;-70
2022/09/10 06:11:08;;;;;;;1999.90;999.90;;;;;;;;;;5021755;28;20319;-68
2022/09/10 06:13:39;;;;;;;1999.90;999.90;;;;;;;;;;5024184;28;20512;-69
2022/09/10 06:16:11;;;;;;;1999.90;999.90;;;;;;;;;;5032568;28;20394;-70
2022/09/10 06:18:41;;;;;;;1999.90;999.90;;;;;;;;;;5041654;28;20489;-70
2022/09/10 06:21:12;;;;;;;1999.90;999.90;;;;;;;;;;5039766;28;20132;-70
2022/09/10 06:23:40;;;;;;;1999.90;999.90;;;;;;;;;;5037448;28;20053;-70
2022/09/10 06:26:11;;;;;;;1999.90;999.90;;;;;;;;;;5028236;28;20524;-71
2022/09/10 06:28:39;;;;;;;1999.90;999.90;;;;;;;;;;5022954;28;20049;-72
2022/09/10 06:31:10;;;;;;;1999.90;999.90;;;;;;;;;;5020143;28;20341;-70
2022/09/10 06:33:38;;;;;;;1999.90;999.90;;;;;;;;;;5026279;28;20056;-70
2022/09/10 06:36:09;;;;;;;1999.90;999.90;;;;;;;;;;5030088;28;20042;-71
2022/09/10 06:38:38;;;;;;;1999.90;999.90;;;;;;;;;;5028614;28;20064;-71
2022/09/10 06:41:12;;;;;;;1999.90;999.90;;;;;;;;;;5030077;28;20053;-71
2022/09/10 06:43:41;;;;;;;1999.90;999.90;;;;;;;;;;5028166;28;20057;-71
2022/09/10 06:46:12;;;;;;;1999.90;999.90;;;;;;;;;;5024051;28;20049;-72
2022/09/10 06:49:02;;;;;;;1999.90;999.90;;;;;;;;;;5028800;28;21276;-70
2022/09/10 06:51:32;;;;;;;1999.90;999.90;;;;;;;;;;5024327;28;20045;-70
2022/09/10 06:54:01;;;;;;;1999.90;999.90;;;;;;;;;;5031310;28;20365;-67
2022/09/10 06:56:30;;;;;;;1999.90;999.90;;;;;;;;;;5046375;28;20051;-69
2022/09/10 06:58:58;;;;;;;1999.90;999.90;;;;;;;;;;5054920;28;20044;-69
2022/09/10 07:01:30;;;;;;;1999.90;999.90;;;;;;;;;;5041686;28;20045;-70
2022/09/10 07:03:59;;;;;;;1999.90;999.90;;;;;;;;;;5040897;28;20059;-69
2022/09/10 07:06:30;;;;;;;1999.90;999.90;;;;;;;;;;5048731;28;20045;-70
2022/09/10 07:09:00;;;;;;;1999.90;999.90;;;;;;;;;;5040394;28;20044;-70
2022/09/10 07:11:29;;;;;;;1999.90;999.90;;;;;;;;;;5046467;28;20048;-72
2022/09/10 07:13:57;;;;;;;1999.90;999.90;;;;;;;;;;5046608;28;20053;-71
2022/09/10 07:16:26;;;;;;;1999.90;999.90;;;;;;;;;;5028607;28;20132;-72
2022/09/10 07:18:55;;;;;;;1999.90;999.90;;;;;;;;;;5025624;28;20041;-71
2022/09/10 07:21:26;;;;;;;1999.90;999.90;;;;;;;;;;5024725;28;20377;-72
2022/09/10 07:23:59;;;;;;;1999.90;999.90;;;;;;;;;;5025944;28;20493;-72
2022/09/10 07:26:30;;;;;;;1999.90;999.90;;;;;;;;;;5026330;28;20069;-72
2022/09/10 07:28:58;;;;;;;1999.90;999.90;;;;;;;;;;5029440;28;20064;-71
2022/09/10 07:31:28;;;;;;;1999.90;999.90;;;;;;;;;;5027645;28;20472;-71
2022/09/10 07:33:57;;;;;;;1999.90;999.90;;;;;;;;;;5026693;28;20075;-71
2022/09/10 07:36:25;;;;;;;1999.90;999.90;;;;;;;;;;5026423;28;20064;-71
2022/09/10 07:38:56;;;;;;;1999.90;999.90;;;;;;;;;;5026159;28;20360;-71
2022/09/10 07:41:26;;;;;;;1999.90;999.90;;;;;;;;;;5021316;28;20074;-71
2022/09/10 07:43:56;;;;;;;1999.90;999.90;;;;;;;;;;5022562;28;20057;-71
2022/09/10 07:46:26;;;;;;;1999.90;999.90;;;;;;;;;;5024967;28;20041;-71
2022/09/10 07:48:56;;;;;;;1999.90;999.90;;;;;;;;;;5023394;28;20053;-72
2022/09/10 07:51:25;;;;;;;1999.90;999.90;;;;;;;;;;5017595;28;20422;-70
2022/09/10 07:53:54;;;;;;;1999.90;999.90;;;;;;;;;;5021707;28;20050;-70
2022/09/10 07:56:23;;;;;;;1999.90;999.90;;;;;;;;;;5025034;28;20504;-72
2022/09/10 07:58:51;;;;;;;1999.90;999.90;;;;;;;;;;5030607;28;20046;-70
2022/09/10 08:01:22;;;;;;;1999.90;999.90;;;;;;;;;;5025129;28;20037;-70
2022/09/10 08:03:50;;;;;;;1999.90;999.90;;;;;;;;;;5022909;28;20060;-69
2022/09/10 08:06:19;;;;;;;1999.90;999.90;;;;;;;;;;5027918;28;20057;-70
2022/09/10 08:08:47;;;;;;;1999.90;999.90;;;;;;;;;;5026280;28;20076;-69
2022/09/10 08:11:17;;;;;;;1999.90;999.90;;;;;;;;;;5027922;28;20489;-71
2022/09/10 08:13:46;;;;;;;1999.90;999.90;;;;;;;;;;5024552;28;20152;-70
2022/09/10 08:16:16;;;;;;;1999.90;999.90;;;;;;;;;;5025626;28;20050;-71
2022/09/10 08:18:46;;;;;;;0.30;0.15;;;;;;;;;;5024283;28;20445;-70
2022/09/10 08:21:15;;;;;;;1999.90;999.90;;;;;;;;;;5025538;28;20360;-71
2022/09/10 08:23:49;;;;;;;95.13;25.55;;;;;;;;;;5021535;28;20046;-71
2022/09/10 08:26:18;;;;;;;1.15;0.20;;;;;;;;;;5028795;28;20053;-71
2022/09/10 08:28:47;;;;;;;2.20;0.20;;;;;;;;;;5030489;28;20052;-70
2022/09/10 08:31:16;;;;;;;0.57;0.10;;;;;;;;;;5029051;28;20533;-71
2022/09/10 08:33:49;;;;;;;0.10;0.10;;;;;;;;;;5018890;28;20140;-71
2022/09/10 08:36:18;;;;;;;1.75;0.30;;;;;;;;;;5030785;28;20056;-71
2022/09/10 08:38:46;;;;;;;0.00;0.00;;;;;;;;;;5029529;28;20050;-71
2022/09/10 08:41:22;;;;;;;3.72;0.30;;;;;;;;;;5023578;28;20053;-71
2022/09/10 08:43:54;;;;;;;0.32;0.20;;;;;;;;;;5031299;28;20504;-71
2022/09/10 08:46:24;;;;;;;0.10;0.10;;;;;;;;;;5019964;28;20056;-71
2022/09/10 08:49:00;;;;;;;0.15;0.15;;;;;;;;;;5030202;28;20068;-71
2022/09/10 08:51:30;;;;;;;0.00;0.00;;;;;;;;;;5031050;28;20133;-71
2022/09/10 08:54:00;;;;;;;168.38;13.90;;;;;;;;;;5027800;28;20049;-72
2022/09/10 08:56:28;;;;;;;1999.90;999.90;;;;;;;;;;5030904;28;20056;-73
2022/09/10 08:58:58;;;;;;;0.28;0.28;;;;;;;;;;5030710;28;20049;-71
2022/09/10 09:01:30;;;;;;;1999.90;999.90;;;;;;;;;;5030564;28;20053;-71
2022/09/10 09:04:01;;;;;;;0.70;0.70;;;;;;;;;;5028165;28;20575;-71
2022/09/10 09:06:33;;;;;;;;;;;;;;;;;;5031214;28;20073;-71
2022/09/10 09:09:02;;;;;;;4.47;4.28;;;;;;;;;;5030563;28;19947;-71
2022/09/10 09:11:35;;;;;;;6.88;6.57;;;;;;;;;;5031094;28;20049;-71
2022/09/10 09:14:11;;;;;;;8.02;7.72;;;;;;;;;;5029980;28;20052;-71
2022/09/10 09:16:49;;;;;;;10.43;10.02;;;;;;;;;;5030619;28;20429;-71
2022/09/10 09:19:24;;;;;;;11.25;10.80;;;;;;;;;;5027601;28;20288;-72
2022/09/10 09:21:53;;;;;;;4.80;4.60;;;;;;;;;;5022298;28;20052;-71
2022/09/10 09:24:24;;;;;;;8.50;8.20;;;;;;;;;;5024502;28;20092;-71
2022/09/10 09:26:54;;;;;;;7.13;6.82;;;;;;;;;;5050070;28;20060;-72
2022/09/10 09:29:24;;;;;;;15.60;15.00;;;;;;;;;;5050552;28;20049;-71
2022/09/10 09:31:55;;;;;;;1.65;1.65;;;;;;;;;;5045089;28;20049;-72
2022/09/10 09:34:31;;;;;;;2.15;2.05;;;;;;;;;;5048856;28;20045;-72
2022/09/10 09:37:02;;;;;;;5.22;5.03;;;;;;;;;;5031024;28;20175;-72
2022/09/10 09:39:35;;;;;;;13.65;13.05;;;;;;;;;;5047571;28;20056;-71
2022/09/10 09:42:07;;;;;;;14.38;13.77;;;;;;;;;;5049124;28;20051;-71
2022/09/10 09:44:38;;;;;;;16.77;16.08;;;;;;;;;;5038990;28;20074;-71
2022/09/10 09:47:08;;;;;;;19.33;18.50;;;;;;;;;;5030258;28;20508;-71
2022/09/10 09:49:38;;;;;;;20.55;19.65;;;;;;;;;;5027505;28;20059;-71
2022/09/10 09:52:15;;;;;;;23.48;22.45;;;;;;;;;;5030076;28;20505;-70
2022/09/10 09:54:44;;;;;;;28.55;27.30;;;;;;;;;;5030486;28;20053;-71
2022/09/10 09:57:33;;;;;;;31.88;30.45;;;;;;;;;;5046625;28;20053;-71
2022/09/10 10:00:17;;;;;;;31.35;29.83;;;;;;;;;;5047539;28;20042;-71
2022/09/10 10:02:45;;;;;;;16.58;15.88;;;;;;;;;;5049464;28;20489;-70
2022/09/10 10:05:23;;;;;;;19.23;18.42;;;;;;;;;;5046070;28;20380;-70
2022/09/10 10:07:51;;;;;;;22.35;21.38;;;;;;;;;;5050089;28;20184;-70
2022/09/10 10:10:23;;;;;;;18.98;18.17;;;;;;;;;;5049671;28;20048;-70
2022/09/10 10:12:53;;;;;;;22.35;21.40;;;;;;;;;;5048051;28;20045;-69
2022/09/10 10:15:35;;;;;;;30.67;29.38;;;;;;;;;;5048176;28;20048;-69
2022/09/10 10:18:24;;;;;;;38.08;36.42;;;;;;;;;;5047504;28;20119;-69
2022/09/10 10:21:09;;;;;;;43.42;41.08;;;;;;;;;;5047848;28;20043;-69
2022/09/10 10:23:39;;;;;;;58.67;55.38;;;;;;;;;;5046588;28;20578;-69
2022/09/10 10:26:31;;;;;;;39.13;37.05;;;;;;;;;;5046867;28;20566;-69
2022/09/10 10:29:02;;;;;;;103.43;97.10;;;;;;;;;;5033522;28;20536;-70
2022/09/10 10:31:37;;;;;;;62.50;59.42;;;;;;;;;;5048439;28;20056;-70
2022/09/10 10:34:23;;;;;;;1999.90;999.90;;;;;;;;;;5048015;28;20060;-70
2022/09/10 10:36:56;;;;;;;0.00;0.00;;;;;;;;;;5049000;28;20075;-69
2022/09/10 10:39:31;;;;;;;111.70;20.05;;;;;;;;;;5048998;28;20052;-71
2022/09/10 10:42:03;;;;;;;0.20;0.20;;;;;;;;;;5046460;28;20041;-71
2022/09/10 10:44:48;;;;;;;1.35;0.10;;;;;;;;;;5038366;28;20041;-72
2022/09/10 10:47:23;;;;;;;0.00;0.00;;;;;;;;;;5027695;28;20568;-71
2022/09/10 10:49:54;;;;;;;0.95;0.73;;;;;;;;;;5029472;28;20042;-70
2022/09/10 10:52:27;;;;;;;4.35;0.30;;;;;;;;;;5028786;28;20405;-71
2022/09/10 10:55:05;;;;;;;0.13;0.13;;;;;;;;;;5027819;28;20059;-71
2022/09/10 10:57:43;;;;;;;0.00;0.00;;;;;;;;;;5019722;28;20053;-70
2022/09/10 11:00:13;;;;;;;0.10;0.10;;;;;;;;;;5029362;28;20525;-70
2022/09/10 11:02:45;;;;;;;0.00;0.00;;;;;;;;;;5029067;28;20049;-70
2022/09/10 11:05:19;;;;;;;0.30;0.17;;;;;;;;;;5028084;28;20602;-71
2022/09/10 11:07:47;;;;;;;0.52;0.20;;;;;;;;;;5025071;28;20057;-70
2022/09/10 11:10:20;;;;;;;0.20;0.20;;;;;;;;;;5029521;28;20507;-70
2022/09/10 11:12:50;;;;;;;0.32;0.30;;;;;;;;;;5028856;28;20394;-69
2022/09/10 11:15:22;;;;;;;0.20;0.10;;;;;;;;;;5028450;28;20063;-70
2022/09/10 11:17:53;;;;;;;0.20;0.13;;;;;;;;;;5029163;28;20501;-70
2022/09/10 11:20:25;;;;;;;0.00;0.00;;;;;;;;;;5033081;28;20409;-70
2022/09/10 11:23:00;;;;;;;0.50;0.20;;;;;;;;;;5032780;28;20049;-72
2022/09/10 11:25:31;;;;;;;1.75;0.20;;;;;;;;;;5032131;28;20061;-71
2022/09/10 11:28:04;;;;;;;0.08;0.08;;;;;;;;;;5028636;28;20041;-70
2022/09/10 11:30:34;;;;;;;0.00;0.00;;;;;;;;;;5029341;28;20140;-70
2022/09/10 11:33:06;;;;;;;0.57;0.20;;;;;;;;;;5032960;28;20053;-70
2022/09/10 11:35:38;;;;;;;0.08;0.00;;;;;;;;;;5040766;28;20052;-70
2022/09/10 11:38:11;;;;;;;0.03;0.03;;;;;;;;;;5052636;28;20053;-70
2022/09/10 11:40:45;;;;;;;0.00;0.00;;;;;;;;;;5046906;28;20411;-68
2022/09/10 11:43:15;;;;;;;0.10;0.10;;;;;;;;;;5040218;28;20045;-68
2022/09/10 11:45:46;;;;;;;0.10;0.10;;;;;;;;;;5046517;28;20148;-68
2022/09/10 11:48:22;;;;;;;0.10;0.05;;;;;;;;;;5034362;28;20076;-68
2022/09/10 11:50:52;;;;;;;0.00;0.00;;;;;;;;;;5047443;28;20049;-68
2022/09/10 11:53:22;;;;;;;0.05;0.05;;;;;;;;;;5043897;28;20053;-67
2022/09/10 11:56:08;;;;;;;0.13;0.03;;;;;;;;;;5032902;28;20053;-68
2022/09/10 11:58:45;;;;;;;0.15;0.10;;;;;;;;;;5024150;28;20041;-68
2022/09/10 12:01:16;;;;;;;0.10;0.10;;;;;;;;;;5024170;28;20041;-67
2022/09/10 12:03:55;;;;;;;133.00;70.88;;;;;;;;;;5024612;28;20052;-67
2022/09/10 12:06:28;;;;;;;48.53;21.00;;;;;;;;;;5040206;28;20132;-67
2022/09/10 12:09:02;;;;;;;0.15;0.03;;;;;;;;;;5047622;28;20058;-67
2022/09/10 12:11:34;;;;;;;0.20;0.20;;;;;;;;;;5046153;28;20063;-68
2022/09/10 12:14:07;;;;;;;0.00;0.00;;;;;;;;;;5048412;28;20116;-68
2022/09/10 12:16:39;;;;;;;2.17;0.13;;;;;;;;;;5029382;28;20508;-67
2022/09/10 12:19:16;;;;;;;0.10;0.10;;;;;;;;;;5026360;28;20049;-67
2022/09/10 12:21:49;;;;;;;0.00;0.00;;;;;;;;;;5027877;28;20041;-67
2022/09/10 12:24:25;;;;;;;0.10;0.10;;;;;;;;;;5019007;28;20057;-68
2022/09/10 12:26:54;;;;;;;0.10;0.10;;;;;;;;;;5029615;28;20049;-68
2022/09/10 12:29:34;;;;;;;1.40;0.40;;;;;;;;;;5022356;28;20060;-68
2022/09/10 12:32:15;;;;;;;0.10;0.00;;;;;;;;;;5022454;28;20042;-68
2022/09/10 12:34:48;;;;;;;1.75;0.15;;;;;;;;;;5026646;28;20065;-66
2022/09/10 12:37:22;;;;;;;0.03;0.03;;;;;;;;;;5028524;28;20150;-67
2022/09/10 12:40:10;;;;;;;0.10;0.10;;;;;;;;;;5025433;28;20041;-67
2022/09/10 12:42:44;;;;;;;0.00;0.00;;;;;;;;;;5025106;28;20065;-67
2022/09/10 12:45:13;;;;;;;0.10;0.10;;;;;;;;;;5027458;28;20041;-67
2022/09/10 12:47:49;;;;;;;0.15;0.10;;;;;;;;;;5026232;28;20087;-67
2022/09/10 12:50:19;;;;;;;0.00;0.00;;;;;;;;;;5025680;28;20099;-68
2022/09/10 12:52:55;;;;;;;0.17;0.10;;;;;;;;;;5026191;28;20050;-68
2022/09/10 12:55:27;;;;;;;0.20;0.10;;;;;;;;;;5034116;28;20065;-69
2022/09/10 12:58:01;;;;;;;0.20;0.20;;;;;;;;;;5046563;28;20040;-68
2022/09/10 13:00:37;;;;;;;0.63;0.15;;;;;;;;;;5038445;28;20045;-68
2022/09/10 13:03:11;;;;;;;0.43;0.08;;;;;;;;;;5047990;28;20041;-68
2022/09/10 13:05:49;;;;;;;0.00;0.00;;;;;;;;;;5035493;28;20037;-68
2022/09/10 13:08:20;;;;;;;0.30;0.22;;;;;;;;;;5026668;28;20501;-68
2022/09/10 13:10:49;;;;;;;0.10;0.10;;;;;;;;;;5026480;28;20059;-69
2022/09/10 13:13:33;;;;;;;0.15;0.10;;;;;;;;;;5029265;28;20076;-68
2022/09/10 13:16:10;;;;;;;0.65;0.20;;;;;;;;;;5028520;28;20056;-68
2022/09/10 13:18:40;;;;;;;0.00;0.00;;;;;;;;;;5029036;28;20343;-68
2022/09/10 13:21:28;;;;;;;0.10;0.10;;;;;;;;;;5018845;28;20049;-68
2022/09/10 13:23:56;;;;;;;0.00;0.00;;;;;;;;;;5015378;28;20069;-68
2022/09/10 13:26:47;;;;;;;0.08;0.08;;;;;;;;;;5020585;28;20056;-67
2022/09/10 13:29:29;;;;;;;0.30;0.15;;;;;;;;;;5014268;28;20108;-68
2022/09/10 13:32:00;;;;;;;0.10;0.10;;;;;;;;;;5020456;28;20051;-68
2022/09/10 13:34:39;;;;;;;0.32;0.20;;;;;;;;;;5023902;28;20060;-69
2022/09/10 13:37:30;;;;;;;0.20;0.10;;;;;;;;;;5054117;28;20057;-68
2022/09/10 13:40:14;;;;;;;0.20;0.10;;;;;;;;;;5045784;28;20052;-67
2022/09/10 13:42:57;;;;;;;0.10;0.10;;;;;;;;;;5026212;28;20095;-67
2022/09/10 13:45:28;;;;;;;0.20;0.08;;;;;;;;;;5045739;28;20064;-68
2022/09/10 13:48:01;;;;;;;0.88;0.17;;;;;;;;;;5043862;28;20052;-68
2022/09/10 13:50:33;;;;;;;0.63;0.40;;;;;;;;;;5046093;28;20052;-67
2022/09/10 13:53:04;;;;;;;0.47;0.10;;;;;;;;;;5046314;28;20041;-67
2022/09/10 13:55:32;;;;;;;0.00;0.00;;;;;;;;;;5032848;28;20125;-68
2022/09/10 13:58:05;;;;;;;0.30;0.20;;;;;;;;;;5024062;28;20060;-68
2022/09/10 14:00:37;;;;;;;0.00;0.00;;;;;;;;;;5027338;28;20053;-67
2022/09/10 14:03:14;;;;;;;0.10;0.10;;;;;;;;;;5026841;28;20045;-68
2022/09/10 14:05:45;;;;;;;0.47;0.20;;;;;;;;;;5028268;28;20056;-67
2022/09/10 14:08:16;;;;;;;0.63;0.20;;;;;;;;;;5023729;28;20497;-67
2022/09/10 14:10:57;;;;;;;0.40;0.10;;;;;;;;;;5026688;28;20115;-67
2022/09/10 14:13:29;;;;;;;0.00;0.00;;;;;;;;;;5019555;28;20056;-67
2022/09/10 14:15:59;;;;;;;0.00;0.00;;;;;;;;;;5026596;28;20539;-67
2022/09/10 14:18:32;;;;;;;0.15;0.15;;;;;;;;;;5023737;28;20060;-67
2022/09/10 14:21:00;;;;;;;1.75;0.10;;;;;;;;;;5024972;28;20049;-67
2022/09/10 14:23:29;;;;;;;0.00;0.00;;;;;;;;;;5026115;28;20050;-66
2022/09/10 14:26:11;;;;;;;0.10;0.10;;;;;;;;;;5020004;28;20486;-66
2022/09/10 14:28:49;;;;;;;0.10;0.10;;;;;;;;;;5021870;28;20054;-67
2022/09/10 14:31:22;;;;;;;0.10;0.10;;;;;;;;;;5023318;28;20059;-67
2022/09/10 14:33:52;;;;;;;0.08;0.08;;;;;;;;;;5026611;28;20695;-68